Oakland Park, FL

4:54 AM EDT on August 30, 2014 (GMT -0400)
Lake Ridge | Change Station
CLOSE
Current Station
Personal Weather Station
Location: Fort Lauderdale, FL
Elevation: 12 ft
Nearby Weather Stations

Elev 12 ft 26.14 °N, 80.13 °W | Updated 33 seconds ago

Mostly Cloudy
Mostly Cloudy
85.1 °F
Feels Like 97 °F
N
1.0
Wind Variable Wind from SE
Gusts 4.0 mph

Today
High -- | Low -- °F
--% Chance of Precip.
Yesterday
High -- | Low -- °F
Precip. -- in
6:59 AM 7:42 PM
Waxing Crescent, 20% visible
Pressure 30.05 in
Visibility 10.0 miles
Clouds Few 2600 ft
Mostly Cloudy 4200 ft
Mostly Cloudy 5500 ft
Heat Index 97 °F
Dew Point 78 °F
Humidity 80%
Rainfall 0.00 in
Snow Depth Not available.
UV 0.0 out of 12
Pollen 4.70 out of 12
Air Quality Not available.
Flu Activity Not available.
METAR KFLL 300753Z 13009KT 10SM FEW026 BKN042 BKN055 29/26 A3005 RMK AO2 RAE18B41E49 TSB03E38 SLP176 P0008 T02890256

More Conditions Fewer Conditions

Pressure 30.05 in
Visibility 10.0 miles
Clouds Few 2600 ft
Mostly Cloudy 4200 ft
Mostly Cloudy 5500 ft
Heat Index 97 °F
Dew Point 78 °F
Humidity 80%
Rainfall 0.00 in
Snow Depth Not available.
UV 0.0 out of 12
Pollen 4.70 out of 12
Air Quality Not available.
Flu Activity Not available.
METAR KFLL 300753Z 13009KT 10SM FEW026 BKN042 BKN055 29/26 A3005 RMK AO2 RAE18B41E49 TSB03E38 SLP176 P0008 T02890256

More Conditions Fewer Conditions

Nowcast | as of 4:05 am EDT on August 30, 2014

Through the early morning hours...isolated showers will continue to develop over the Atlantic waters and move northwest at 10 knots into the East Coast Metro areas of South Florida before dissipating. Heat indices will also remain in the lower to mid 90s early this morning...as the temperatures will remain in the mid 80s with dew points in the mid 70s.

×

10-Day Weather Forecast

Almanac

Astronomy

Aug. 30, 2014 Rise Set
Actual Time 6:59 AM EDT 7:42 PM EDT
Civil Twilight 6:36 AM EDT 8:05 PM EDT
Nautical Twilight 6:08 AM EDT 8:33 PM EDT
Astronomical Twilight 5:40 AM EDT 9:01 PM EDT
Moon 11:15 AM EDT 10:47 PM EDT
Length of Visible Light 13h 29m
Length of Day
12h 42m
Tomorrow will be 1m 27s shorter.
Waxing Crescent, 20% of the Moon is Illuminated
Today
Waxing Crescent
Sep 2
First Quarter
Sep 8
Full
Sep 15
Last Quarter
Sep 24
New

Today's Extremes

State Highs State Lows

Community

WunderPhotos

Upload Photos

1,748,474 photos uploaded!

Nearby

Air Quality

  Air Quality AQ Index Pollutant
Saturday Good
OZONE
Saturday Good
PM2.5
Sunday Good
OZONE
Sunday Good
PM2.5
Monday Good
OZONE
Monday Good
PM2.5
Tuesday Good
OZONE
Tuesday Good
PM2.5

Snow Depth

Station Depth Elevation
No new snow has been reported.

Earthquake Activity

City Distance Mag. Time & Date
No recent earthquake activity has been reported nearby.
Minimum magnitude displayed is 2.5.

Coastal Water Temperatures

Place Temperature
Virginia Key, FL 87.1 °F

Nearby Weather Stations